sensor_id;sensor_type;location;lat;lon;timestamp;pressure;altitude;pressure_sealevel;temperature;humidity
34081;BME280;20358;50.272;19.026;2023-04-23T00:00:10;97901.84;;;8.87;43.16
34081;BME280;20358;50.272;19.026;2023-04-23T00:03:19;97904.59;;;8.86;42.63
34081;BME280;20358;50.272;19.026;2023-04-23T00:06:28;97902.06;;;8.84;42.69
34081;BME280;20358;50.272;19.026;2023-04-23T00:09:37;97918.94;;;8.82;43.30
34081;BME280;20358;50.272;19.026;2023-04-23T00:12:46;97893.78;;;8.78;43.08
34081;BME280;20358;50.272;19.026;2023-04-23T00:15:53;97893.06;;;8.76;43.97
34081;BME280;20358;50.272;19.026;2023-04-23T00:18:59;97897.69;;;8.72;43.41
34081;BME280;20358;50.272;19.026;2023-04-23T00:22:05;97888.16;;;8.71;44.38
34081;BME280;20358;50.272;19.026;2023-04-23T00:25:11;97880.47;;;8.68;43.55
34081;BME280;20358;50.272;19.026;2023-04-23T00:28:20;97877.13;;;8.66;44.12
34081;BME280;20358;50.272;19.026;2023-04-23T00:31:26;97878.41;;;8.60;43.92
34081;BME280;20358;50.272;19.026;2023-04-23T00:34:32;97879.56;;;8.56;44.70
34081;BME280;20358;50.272;19.026;2023-04-23T00:37:38;97882.44;;;8.53;44.51
34081;BME280;20358;50.272;19.026;2023-04-23T00:40:45;97878.25;;;8.51;45.01
34081;BME280;20358;50.272;19.026;2023-04-23T00:43:53;97876.56;;;8.50;44.94
34081;BME280;20358;50.272;19.026;2023-04-23T00:47:02;97879.41;;;8.47;44.32
34081;BME280;20358;50.272;19.026;2023-04-23T00:50:08;97875.09;;;8.46;44.89
34081;BME280;20358;50.272;19.026;2023-04-23T00:53:15;97876.28;;;8.42;44.62
34081;BME280;20358;50.272;19.026;2023-04-23T00:56:20;97873.88;;;8.39;44.31
34081;BME280;20358;50.272;19.026;2023-04-23T00:59:30;97878.53;;;8.35;45.09
34081;BME280;20358;50.272;19.026;2023-04-23T01:02:36;97877.06;;;8.31;45.29
34081;BME280;20358;50.272;19.026;2023-04-23T01:05:44;97869.84;;;8.22;44.48
34081;BME280;20358;50.272;19.026;2023-04-23T01:08:51;97871.66;;;8.22;45.38
34081;BME280;20358;50.272;19.026;2023-04-23T01:11:58;97881.53;;;8.18;45.63
34081;BME280;20358;50.272;19.026;2023-04-23T01:15:10;97884.28;;;8.17;45.18
34081;BME280;20358;50.272;19.026;2023-04-23T01:18:17;97883.66;;;8.13;44.76
34081;BME280;20358;50.272;19.026;2023-04-23T01:21:24;97880.41;;;8.10;45.14
34081;BME280;20358;50.272;19.026;2023-04-23T01:24:34;97890.19;;;8.08;45.77
34081;BME280;20358;50.272;19.026;2023-04-23T01:27:40;97882.44;;;8.06;45.17
34081;BME280;20358;50.272;19.026;2023-04-23T01:30:47;97875.69;;;8.02;45.12
34081;BME280;20358;50.272;19.026;2023-04-23T01:33:54;97870.66;;;7.99;46.17
34081;BME280;20358;50.272;19.026;2023-04-23T01:37:03;97874.44;;;7.95;45.95
34081;BME280;20358;50.272;19.026;2023-04-23T01:40:12;97880.97;;;7.89;46.13
34081;BME280;20358;50.272;19.026;2023-04-23T01:43:19;97872.56;;;7.84;45.97
34081;BME280;20358;50.272;19.026;2023-04-23T01:46:26;97878.28;;;7.78;46.75
34081;BME280;20358;50.272;19.026;2023-04-23T01:49:33;97881.00;;;7.77;46.70
34081;BME280;20358;50.272;19.026;2023-04-23T01:52:39;97892.56;;;7.74;46.82
34081;BME280;20358;50.272;19.026;2023-04-23T01:55:50;97883.09;;;7.72;46.83
34081;BME280;20358;50.272;19.026;2023-04-23T01:58:57;97874.50;;;7.70;47.47
34081;BME280;20358;50.272;19.026;2023-04-23T02:02:03;97873.66;;;7.69;46.84
34081;BME280;20358;50.272;19.026;2023-04-23T02:05:16;97878.06;;;7.69;47.44
34081;BME280;20358;50.272;19.026;2023-04-23T02:08:23;97871.34;;;7.65;47.05
34081;BME280;20358;50.272;19.026;2023-04-23T02:11:32;97864.81;;;7.58;47.42
34081;BME280;20358;50.272;19.026;2023-04-23T02:14:38;97869.25;;;7.57;47.66
34081;BME280;20358;50.272;19.026;2023-04-23T02:17:45;97873.25;;;7.50;48.51
34081;BME280;20358;50.272;19.026;2023-04-23T02:20:53;97864.97;;;7.44;48.59
34081;BME280;20358;50.272;19.026;2023-04-23T02:24:01;97858.13;;;7.41;47.76
34081;BME280;20358;50.272;19.026;2023-04-23T02:27:10;97860.25;;;7.36;47.99
34081;BME280;20358;50.272;19.026;2023-04-23T02:30:17;97864.00;;;7.32;48.71
34081;BME280;20358;50.272;19.026;2023-04-23T02:33:24;97860.84;;;7.27;49.03
34081;BME280;20358;50.272;19.026;2023-04-23T02:36:30;97859.41;;;7.23;49.14
34081;BME280;20358;50.272;19.026;2023-04-23T02:39:36;97866.75;;;7.18;48.96
34081;BME280;20358;50.272;19.026;2023-04-23T02:42:46;97860.78;;;7.16;49.40
34081;BME280;20358;50.272;19.026;2023-04-23T02:45:52;97864.34;;;7.15;49.79
34081;BME280;20358;50.272;19.026;2023-04-23T02:48:58;97858.34;;;7.13;49.88
34081;BME280;20358;50.272;19.026;2023-04-23T02:52:04;97860.97;;;7.13;49.56
34081;BME280;20358;50.272;19.026;2023-04-23T02:55:11;97853.31;;;7.10;49.42
34081;BME280;20358;50.272;19.026;2023-04-23T02:58:19;97858.75;;;7.07;49.79
34081;BME280;20358;50.272;19.026;2023-04-23T03:01:29;97858.75;;;7.07;49.86
34081;BME280;20358;50.272;19.026;2023-04-23T03:04:35;97855.41;;;7.05;49.89
34081;BME280;20358;50.272;19.026;2023-04-23T03:07:42;97862.56;;;7.03;50.74
34081;BME280;20358;50.272;19.026;2023-04-23T03:10:48;97863.50;;;7.02;50.78
34081;BME280;20358;50.272;19.026;2023-04-23T03:13:57;97865.28;;;7.01;50.11
34081;BME280;20358;50.272;19.026;2023-04-23T03:17:03;97854.78;;;7.01;50.98
34081;BME280;20358;50.272;19.026;2023-04-23T03:20:10;97853.91;;;7.01;50.32
34081;BME280;20358;50.272;19.026;2023-04-23T03:23:16;97862.75;;;7.00;50.35
34081;BME280;20358;50.272;19.026;2023-04-23T03:26:23;97850.78;;;6.96;51.05
34081;BME280;20358;50.272;19.026;2023-04-23T03:29:31;97846.56;;;6.93;51.47
34081;BME280;20358;50.272;19.026;2023-04-23T03:32:38;97845.22;;;6.88;50.91
34081;BME280;20358;50.272;19.026;2023-04-23T03:35:45;97848.66;;;6.88;51.46
34081;BME280;20358;50.272;19.026;2023-04-23T03:38:57;97850.88;;;6.82;51.51
34081;BME280;20358;50.272;19.026;2023-04-23T03:42:13;97851.59;;;6.84;51.30
34081;BME280;20358;50.272;19.026;2023-04-23T03:45:22;97849.19;;;6.81;51.95
34081;BME280;20358;50.272;19.026;2023-04-23T03:48:29;97849.31;;;6.79;51.77
34081;BME280;20358;50.272;19.026;2023-04-23T03:51:39;97853.69;;;6.79;52.07
34081;BME280;20358;50.272;19.026;2023-04-23T03:54:45;97855.59;;;6.77;52.00
34081;BME280;20358;50.272;19.026;2023-04-23T03:57:52;97850.50;;;6.73;52.20
34081;BME280;20358;50.272;19.026;2023-04-23T04:01:02;97823.41;;;6.48;52.30
34081;BME280;20358;50.272;19.026;2023-04-23T04:04:09;97847.16;;;6.71;52.22
34081;BME280;20358;50.272;19.026;2023-04-23T04:07:15;97855.75;;;6.73;52.45
34081;BME280;20358;50.272;19.026;2023-04-23T04:10:21;97856.31;;;6.79;52.02
34081;BME280;20358;50.272;19.026;2023-04-23T04:13:27;97864.00;;;6.82;52.05
34081;BME280;20358;50.272;19.026;2023-04-23T04:16:36;97861.25;;;6.83;51.94
34081;BME280;20358;50.272;19.026;2023-04-23T04:19:42;97859.28;;;6.87;52.05
34081;BME280;20358;50.272;19.026;2023-04-23T04:22:48;97854.56;;;6.92;52.62
34081;BME280;20358;50.272;19.026;2023-04-23T04:25:54;97861.28;;;6.96;52.36
34081;BME280;20358;50.272;19.026;2023-04-23T04:29:01;97864.41;;;7.01;52.00
34081;BME280;20358;50.272;19.026;2023-04-23T04:32:10;97857.31;;;7.03;51.98
34081;BME280;20358;50.272;19.026;2023-04-23T04:35:17;97862.13;;;7.09;51.69
34081;BME280;20358;50.272;19.026;2023-04-23T04:38:23;97855.63;;;7.14;51.85
34081;BME280;20358;50.272;19.026;2023-04-23T04:41:32;97864.88;;;7.20;51.94
34081;BME280;20358;50.272;19.026;2023-04-23T04:44:38;97862.56;;;7.28;51.58
34081;BME280;20358;50.272;19.026;2023-04-23T04:47:48;97855.91;;;7.35;52.29
34081;BME280;20358;50.272;19.026;2023-04-23T04:50:54;97859.81;;;7.42;52.53
34081;BME280;20358;50.272;19.026;2023-04-23T04:54:00;97850.78;;;7.46;51.59
34081;BME280;20358;50.272;19.026;2023-04-23T04:57:06;97865.38;;;7.63;51.69
34081;BME280;20358;50.272;19.026;2023-04-23T05:00:21;97862.91;;;7.72;51.04
34081;BME280;20358;50.272;19.026;2023-04-23T05:03:33;97869.19;;;7.82;51.83
34081;BME280;20358;50.272;19.026;2023-04-23T05:06:41;97871.06;;;7.93;51.07
34081;BME280;20358;50.272;19.026;2023-04-23T05:09:46;97870.22;;;8.05;50.51
34081;BME280;20358;50.272;19.026;2023-04-23T05:12:53;97869.56;;;8.14;50.09
34081;BME280;20358;50.272;19.026;2023-04-23T05:16:00;97863.03;;;8.20;50.38
34081;BME280;20358;50.272;19.026;2023-04-23T05:19:09;97848.91;;;8.21;50.60
34081;BME280;20358;50.272;19.026;2023-04-23T05:22:15;97866.19;;;8.36;49.48
34081;BME280;20358;50.272;19.026;2023-04-23T05:25:21;97863.41;;;8.50;49.22
34081;BME280;20358;50.272;19.026;2023-04-23T05:28:27;97868.72;;;8.61;49.70
34081;BME280;20358;50.272;19.026;2023-04-23T05:31:33;97860.75;;;8.74;49.35
34081;BME280;20358;50.272;19.026;2023-04-23T05:34:42;97865.00;;;8.87;49.63
34081;BME280;20358;50.272;19.026;2023-04-23T05:37:48;97859.72;;;8.98;49.26
34081;BME280;20358;50.272;19.026;2023-04-23T05:40:57;97866.59;;;9.12;48.45
34081;BME280;20358;50.272;19.026;2023-04-23T05:44:03;97858.63;;;9.25;48.70
34081;BME280;20358;50.272;19.026;2023-04-23T05:47:11;97865.94;;;9.32;47.98
34081;BME280;20358;50.272;19.026;2023-04-23T05:50:22;97868.44;;;9.45;48.29
34081;BME280;20358;50.272;19.026;2023-04-23T05:53:28;97864.66;;;9.60;47.27
34081;BME280;20358;50.272;19.026;2023-04-23T05:56:35;97855.63;;;9.73;47.17
34081;BME280;20358;50.272;19.026;2023-04-23T05:59:40;97860.75;;;9.86;47.03
34081;BME280;20358;50.272;19.026;2023-04-23T06:02:47;97863.41;;;9.97;47.25
34081;BME280;20358;50.272;19.026;2023-04-23T06:05:56;97864.94;;;10.11;47.13
34081;BME280;20358;50.272;19.026;2023-04-23T06:09:02;97863.13;;;10.22;46.98
34081;BME280;20358;50.272;19.026;2023-04-23T06:12:10;97859.38;;;10.36;47.01
34081;BME280;20358;50.272;19.026;2023-04-23T06:15:19;97858.97;;;10.52;46.38
34081;BME280;20358;50.272;19.026;2023-04-23T06:18:28;97855.19;;;10.65;46.33
34081;BME280;20358;50.272;19.026;2023-04-23T06:21:37;97861.84;;;10.80;45.63
34081;BME280;20358;50.272;19.026;2023-04-23T06:24:43;97860.44;;;10.97;45.14
34081;BME280;20358;50.272;19.026;2023-04-23T06:27:49;97859.84;;;11.14;44.75
34081;BME280;20358;50.272;19.026;2023-04-23T06:30:58;97856.53;;;11.33;44.50
34081;BME280;20358;50.272;19.026;2023-04-23T06:34:05;97860.34;;;11.49;43.56
34081;BME280;20358;50.272;19.026;2023-04-23T06:37:14;97852.50;;;11.68;43.55
34081;BME280;20358;50.272;19.026;2023-04-23T06:40:20;97858.16;;;11.85;43.16
34081;BME280;20358;50.272;19.026;2023-04-23T06:43:26;97849.56;;;12.02;42.87
34081;BME280;20358;50.272;19.026;2023-04-23T06:47:22;97849.38;;;12.24;42.18
34081;BME280;20358;50.272;19.026;2023-04-23T06:50:28;97849.38;;;12.43;41.99
34081;BME280;20358;50.272;19.026;2023-04-23T06:53:38;97844.38;;;12.59;41.30
34081;BME280;20358;50.272;19.026;2023-04-23T06:56:43;97843.69;;;12.76;40.76
34081;BME280;20358;50.272;19.026;2023-04-23T06:59:50;97841.28;;;12.93;40.21
34081;BME280;20358;50.272;19.026;2023-04-23T07:03:02;97830.97;;;13.09;39.21
34081;BME280;20358;50.272;19.026;2023-04-23T07:06:09;97835.53;;;13.26;38.98
34081;BME280;20358;50.272;19.026;2023-04-23T07:09:17;97831.75;;;13.38;39.20
34081;BME280;20358;50.272;19.026;2023-04-23T07:12:25;97831.97;;;13.54;38.87
34081;BME280;20358;50.272;19.026;2023-04-23T07:15:31;97836.09;;;13.66;38.30
34081;BME280;20358;50.272;19.026;2023-04-23T07:18:37;97832.94;;;13.80;37.55
34081;BME280;20358;50.272;19.026;2023-04-23T07:21:43;97834.44;;;13.92;38.23
34081;BME280;20358;50.272;19.026;2023-04-23T07:24:53;97827.00;;;14.05;37.50
34081;BME280;20358;50.272;19.026;2023-04-23T07:27:58;97826.09;;;14.15;37.88
34081;BME280;20358;50.272;19.026;2023-04-23T07:31:05;97822.28;;;14.17;37.05
34081;BME280;20358;50.272;19.026;2023-04-23T07:34:11;97833.56;;;14.29;36.87
34081;BME280;20358;50.272;19.026;2023-04-23T07:37:18;97825.69;;;14.37;37.52
34081;BME280;20358;50.272;19.026;2023-04-23T07:40:26;97825.75;;;14.45;37.58
34081;BME280;20358;50.272;19.026;2023-04-23T07:43:32;97825.84;;;14.53;37.38
34081;BME280;20358;50.272;19.026;2023-04-23T07:46:38;97824.91;;;14.62;36.83
34081;BME280;20358;50.272;19.026;2023-04-23T07:49:44;97821.50;;;14.69;36.66
34081;BME280;20358;50.272;19.026;2023-04-23T07:52:50;97812.25;;;14.73;35.93
34081;BME280;20358;50.272;19.026;2023-04-23T07:56:00;97814.00;;;14.83;35.80
34081;BME280;20358;50.272;19.026;2023-04-23T07:59:05;97816.19;;;14.87;35.26
34081;BME280;20358;50.272;19.026;2023-04-23T08:02:11;97817.38;;;14.93;35.41
34081;BME280;20358;50.272;19.026;2023-04-23T08:05:19;97807.28;;;14.96;35.52
34081;BME280;20358;50.272;19.026;2023-04-23T08:08:26;97807.50;;;15.03;35.44
34081;BME280;20358;50.272;19.026;2023-04-23T08:11:34;97811.66;;;15.05;35.68
34081;BME280;20358;50.272;19.026;2023-04-23T08:14:41;97805.38;;;15.06;35.43
34081;BME280;20358;50.272;19.026;2023-04-23T08:17:52;97812.38;;;15.07;36.25
34081;BME280;20358;50.272;19.026;2023-04-23T08:20:59;97804.06;;;15.10;35.75
34081;BME280;20358;50.272;19.026;2023-04-23T08:24:06;97804.91;;;15.11;35.92
34081;BME280;20358;50.272;19.026;2023-04-23T08:27:15;97801.75;;;15.15;35.90
34081;BME280;20358;50.272;19.026;2023-04-23T08:30:21;97796.13;;;15.18;35.69
34081;BME280;20358;50.272;19.026;2023-04-23T08:33:27;97789.34;;;15.24;35.35
34081;BME280;20358;50.272;19.026;2023-04-23T08:36:33;97787.22;;;15.27;34.61
34081;BME280;20358;50.272;19.026;2023-04-23T08:39:39;97795.72;;;15.31;34.95
34081;BME280;20358;50.272;19.026;2023-04-23T08:42:52;97740.88;;;15.04;35.13
34081;BME280;20358;50.272;19.026;2023-04-23T08:46:03;97788.63;;;15.40;35.16
34081;BME280;20358;50.272;19.026;2023-04-23T08:49:13;97735.63;;;15.12;34.10
34081;BME280;20358;50.272;19.026;2023-04-23T08:52:23;97778.19;;;15.54;33.25
34081;BME280;20358;50.272;19.026;2023-04-23T08:55:33;97777.13;;;15.65;33.13
34081;BME280;20358;50.272;19.026;2023-04-23T08:58:44;97772.50;;;15.75;33.14
34081;BME280;20358;50.272;19.026;2023-04-23T09:01:52;97771.53;;;15.84;32.32
34081;BME280;20358;50.272;19.026;2023-04-23T09:05:01;97769.56;;;15.94;31.88
34081;BME280;20358;50.272;19.026;2023-04-23T09:08:09;97772.44;;;16.01;30.92
34081;BME280;20358;50.272;19.026;2023-04-23T09:11:16;97764.44;;;16.01;31.53
34081;BME280;20358;50.272;19.026;2023-04-23T09:14:26;97768.63;;;16.03;31.24
34081;BME280;20358;50.272;19.026;2023-04-23T09:17:33;97760.28;;;16.06;30.53
34081;BME280;20358;50.272;19.026;2023-04-23T09:20:43;97758.97;;;16.10;30.73
34081;BME280;20358;50.272;19.026;2023-04-23T09:23:49;97766.97;;;16.10;30.94
34081;BME280;20358;50.272;19.026;2023-04-23T09:26:57;97763.09;;;16.05;30.69
34081;BME280;20358;50.272;19.026;2023-04-23T09:30:10;97752.28;;;16.06;30.55
34081;BME280;20358;50.272;19.026;2023-04-23T09:33:16;97744.28;;;16.06;31.09
34081;BME280;20358;50.272;19.026;2023-04-23T09:36:23;97749.97;;;16.11;31.35
34081;BME280;20358;50.272;19.026;2023-04-23T09:39:29;97741.84;;;16.21;31.42
34081;BME280;20358;50.272;19.026;2023-04-23T09:42:37;97745.03;;;16.32;31.32
34081;BME280;20358;50.272;19.026;2023-04-23T09:45:54;97742.69;;;16.37;31.18
34081;BME280;20358;50.272;19.026;2023-04-23T09:49:02;97750.72;;;16.45;30.93
34081;BME280;20358;50.272;19.026;2023-04-23T09:52:08;97734.06;;;16.51;30.82
34081;BME280;20358;50.272;19.026;2023-04-23T09:55:26;97736.72;;;16.60;31.69
34081;BME280;20358;50.272;19.026;2023-04-23T09:58:36;97735.38;;;16.55;31.49
34081;BME280;20358;50.272;19.026;2023-04-23T10:01:46;97727.72;;;16.61;31.40
34081;BME280;20358;50.272;19.026;2023-04-23T10:04:53;97725.75;;;16.63;31.58
34081;BME280;20358;50.272;19.026;2023-04-23T10:08:20;97722.72;;;16.66;31.45
34081;BME280;20358;50.272;19.026;2023-04-23T10:11:27;97707.56;;;16.66;31.46
34081;BME280;20358;50.272;19.026;2023-04-23T10:14:37;97710.06;;;16.68;31.29
34081;BME280;20358;50.272;19.026;2023-04-23T10:17:46;97708.72;;;16.72;31.10
34081;BME280;20358;50.272;19.026;2023-04-23T10:20:54;97703.72;;;16.69;30.57
34081;BME280;20358;50.272;19.026;2023-04-23T10:24:01;97704.03;;;16.74;31.04
34081;BME280;20358;50.272;19.026;2023-04-23T10:27:12;97696.69;;;16.84;31.27
34081;BME280;20358;50.272;19.026;2023-04-23T10:30:24;97699.72;;;16.89;31.64
34081;BME280;20358;50.272;19.026;2023-04-23T10:33:34;97697.72;;;16.83;31.67
34081;BME280;20358;50.272;19.026;2023-04-23T10:36:59;97695.56;;;16.86;31.70
34081;BME280;20358;50.272;19.026;2023-04-23T10:40:09;97685.03;;;16.93;31.55
34081;BME280;20358;50.272;19.026;2023-04-23T10:43:18;97677.34;;;16.98;30.94
34081;BME280;20358;50.272;19.026;2023-04-23T10:46:29;97640.38;;;16.79;31.16
34081;BME280;20358;50.272;19.026;2023-04-23T10:49:43;97678.69;;;17.02;31.63
34081;BME280;20358;50.272;19.026;2023-04-23T10:52:50;97676.34;;;17.07;30.85
34081;BME280;20358;50.272;19.026;2023-04-23T10:56:05;97679.47;;;17.19;30.65
34081;BME280;20358;50.272;19.026;2023-04-23T10:59:21;97678.44;;;17.28;30.56
34081;BME280;20358;50.272;19.026;2023-04-23T11:02:42;97642.47;;;17.15;30.22
34081;BME280;20358;50.272;19.026;2023-04-23T11:05:53;97680.88;;;17.45;30.48
34081;BME280;20358;50.272;19.026;2023-04-23T11:08:58;97663.78;;;17.54;30.40
34081;BME280;20358;50.272;19.026;2023-04-23T11:12:34;97667.38;;;17.69;30.50
34081;BME280;20358;50.272;19.026;2023-04-23T11:15:41;97661.97;;;17.86;30.14
34081;BME280;20358;50.272;19.026;2023-04-23T11:18:55;97656.28;;;17.89;30.09
34081;BME280;20358;50.272;19.026;2023-04-23T11:22:12;97665.69;;;18.07;30.75
34081;BME280;20358;50.272;19.026;2023-04-23T11:25:23;97669.47;;;18.13;29.60
34081;BME280;20358;50.272;19.026;2023-04-23T11:28:33;97666.56;;;18.22;30.01
34081;BME280;20358;50.272;19.026;2023-04-23T11:31:43;97658.41;;;18.38;29.71
34081;BME280;20358;50.272;19.026;2023-04-23T11:35:05;97661.50;;;18.50;29.89
34081;BME280;20358;50.272;19.026;2023-04-23T11:38:19;97645.22;;;18.60;30.29
34081;BME280;20358;50.272;19.026;2023-04-23T11:41:25;97639.78;;;18.82;29.66
34081;BME280;20358;50.272;19.026;2023-04-23T11:44:32;97643.41;;;19.04;29.96
34081;BME280;20358;50.272;19.026;2023-04-23T11:47:37;97644.69;;;19.23;29.41
34081;BME280;20358;50.272;19.026;2023-04-23T11:50:44;97646.28;;;19.32;29.22
34081;BME280;20358;50.272;19.026;2023-04-23T11:53:53;97642.72;;;19.46;28.70
34081;BME280;20358;50.272;19.026;2023-04-23T11:57:01;97643.53;;;19.61;28.61
34081;BME280;20358;50.272;19.026;2023-04-23T12:00:16;97636.97;;;19.64;28.33
34081;BME280;20358;50.272;19.026;2023-04-23T12:03:24;97638.44;;;19.66;28.57
34081;BME280;20358;50.272;19.026;2023-04-23T12:06:31;97632.88;;;19.82;28.92
34081;BME280;20358;50.272;19.026;2023-04-23T12:09:44;97639.66;;;19.99;28.71
34081;BME280;20358;50.272;19.026;2023-04-23T12:12:50;97640.91;;;20.03;28.48
34081;BME280;20358;50.272;19.026;2023-04-23T12:15:59;97634.69;;;19.96;28.45
34081;BME280;20358;50.272;19.026;2023-04-23T12:19:12;97635.84;;;19.87;28.12
34081;BME280;20358;50.272;19.026;2023-04-23T12:22:26;97631.38;;;19.80;28.00
34081;BME280;20358;50.272;19.026;2023-04-23T12:25:35;97618.91;;;19.87;28.39
34081;BME280;20358;50.272;19.026;2023-04-23T12:28:45;97614.13;;;20.03;28.13
34081;BME280;20358;50.272;19.026;2023-04-23T12:31:56;97626.19;;;20.14;28.52
34081;BME280;20358;50.272;19.026;2023-04-23T12:35:04;97620.66;;;20.15;28.07
34081;BME280;20358;50.272;19.026;2023-04-23T12:38:21;97611.38;;;20.18;27.97
34081;BME280;20358;50.272;19.026;2023-04-23T12:41:31;97605.06;;;20.04;28.13
34081;BME280;20358;50.272;19.026;2023-04-23T12:44:37;97613.56;;;19.87;28.09
34081;BME280;20358;50.272;19.026;2023-04-23T12:47:44;97608.00;;;19.88;28.23
34081;BME280;20358;50.272;19.026;2023-04-23T12:50:49;97594.97;;;19.85;28.59
34081;BME280;20358;50.272;19.026;2023-04-23T12:53:56;97603.78;;;19.79;28.06
34081;BME280;20358;50.272;19.026;2023-04-23T12:57:06;97603.88;;;19.71;27.32
34081;BME280;20358;50.272;19.026;2023-04-23T13:00:16;97599.66;;;19.62;28.38
34081;BME280;20358;50.272;19.026;2023-04-23T13:03:22;97591.72;;;19.54;28.63
34081;BME280;20358;50.272;19.026;2023-04-23T13:06:29;97597.50;;;19.51;27.90
34081;BME280;20358;50.272;19.026;2023-04-23T13:09:35;97589.56;;;19.43;28.14
34081;BME280;20358;50.272;19.026;2023-04-23T13:12:45;97595.31;;;19.40;28.15
34081;BME280;20358;50.272;19.026;2023-04-23T13:15:50;97595.56;;;19.45;27.93
34081;BME280;20358;50.272;19.026;2023-04-23T13:18:59;97586.38;;;19.54;28.36
34081;BME280;20358;50.272;19.026;2023-04-23T13:22:04;97578.69;;;19.66;28.01
34081;BME280;20358;50.272;19.026;2023-04-23T13:25:11;97573.47;;;19.79;27.95
34081;BME280;20358;50.272;19.026;2023-04-23T13:28:19;97565.75;;;19.90;28.21
34081;BME280;20358;50.272;19.026;2023-04-23T13:31:26;97562.69;;;19.93;28.13
34081;BME280;20358;50.272;19.026;2023-04-23T13:34:32;97564.53;;;19.93;27.72
34081;BME280;20358;50.272;19.026;2023-04-23T13:37:39;97560.41;;;19.90;27.76
34081;BME280;20358;50.272;19.026;2023-04-23T13:40:45;97559.00;;;19.94;28.73
34081;BME280;20358;50.272;19.026;2023-04-23T13:43:54;97559.25;;;19.99;28.13
34081;BME280;20358;50.272;19.026;2023-04-23T13:47:00;97556.44;;;20.07;27.38
34081;BME280;20358;50.272;19.026;2023-04-23T13:50:07;97538.41;;;20.23;27.79
34081;BME280;20358;50.272;19.026;2023-04-23T13:53:13;97543.09;;;20.42;27.16
34081;BME280;20358;50.272;19.026;2023-04-23T13:56:19;97543.09;;;20.42;27.58
34081;BME280;20358;50.272;19.026;2023-04-23T13:59:28;97538.03;;;20.26;27.76
34081;BME280;20358;50.272;19.026;2023-04-23T14:02:34;97534.31;;;20.27;27.51
34081;BME280;20358;50.272;19.026;2023-04-23T14:05:40;97530.63;;;20.28;27.22
34081;BME280;20358;50.272;19.026;2023-04-23T14:08:46;97534.72;;;20.24;27.36
34081;BME280;20358;50.272;19.026;2023-04-23T14:11:52;97532.56;;;20.12;27.68
34081;BME280;20358;50.272;19.026;2023-04-23T14:15:01;97532.94;;;20.09;27.52
34081;BME280;20358;50.272;19.026;2023-04-23T14:18:07;97534.63;;;20.10;27.57
34081;BME280;20358;50.272;19.026;2023-04-23T14:21:14;97529.19;;;20.04;27.38
34081;BME280;20358;50.272;19.026;2023-04-23T14:24:22;97535.63;;;20.09;27.62
34081;BME280;20358;50.272;19.026;2023-04-23T14:27:39;97531.94;;;20.10;27.33
34081;BME280;20358;50.272;19.026;2023-04-23T14:30:54;97532.13;;;20.09;26.91
34081;BME280;20358;50.272;19.026;2023-04-23T14:34:01;97522.09;;;20.17;27.79
34081;BME280;20358;50.272;19.026;2023-04-23T14:37:07;97521.81;;;20.34;26.73
34081;BME280;20358;50.272;19.026;2023-04-23T14:40:14;97521.50;;;20.50;27.12
34081;BME280;20358;50.272;19.026;2023-04-23T14:43:21;97515.19;;;20.64;26.66
34081;BME280;20358;50.272;19.026;2023-04-23T14:46:30;97510.50;;;20.72;26.97
34081;BME280;20358;50.272;19.026;2023-04-23T14:49:36;97516.50;;;20.81;26.93
34081;BME280;20358;50.272;19.026;2023-04-23T14:52:46;97512.41;;;20.85;26.76
34081;BME280;20358;50.272;19.026;2023-04-23T14:55:53;97521.03;;;20.74;26.68
34081;BME280;20358;50.272;19.026;2023-04-23T14:59:00;97515.16;;;20.57;26.50
34081;BME280;20358;50.272;19.026;2023-04-23T15:02:09;97520.81;;;20.41;26.19
34081;BME280;20358;50.272;19.026;2023-04-23T15:05:16;97513.50;;;20.29;26.57
34081;BME280;20358;50.272;19.026;2023-04-23T15:08:22;97501.66;;;20.16;26.38
34081;BME280;20358;50.272;19.026;2023-04-23T15:11:28;97509.28;;;20.13;26.63
34081;BME280;20358;50.272;19.026;2023-04-23T15:14:36;97518.94;;;20.07;26.67
34081;BME280;20358;50.272;19.026;2023-04-23T15:17:46;97502.34;;;19.97;27.71
34081;BME280;20358;50.272;19.026;2023-04-23T15:20:52;97506.81;;;19.90;28.65
34081;BME280;20358;50.272;19.026;2023-04-23T15:23:59;97518.03;;;19.79;28.44
34081;BME280;20358;50.272;19.026;2023-04-23T15:27:05;97510.50;;;19.68;29.55
34081;BME280;20358;50.272;19.026;2023-04-23T15:30:16;97510.38;;;19.76;29.75
34081;BME280;20358;50.272;19.026;2023-04-23T15:33:28;97515.34;;;19.79;29.53
34081;BME280;20358;50.272;19.026;2023-04-23T15:36:35;97507.22;;;19.87;29.19
34081;BME280;20358;50.272;19.026;2023-04-23T15:39:41;97501.16;;;20.06;29.67
34081;BME280;20358;50.272;19.026;2023-04-23T15:42:48;97511.69;;;20.36;29.46
34081;BME280;20358;50.272;19.026;2023-04-23T15:45:53;97504.47;;;20.64;28.67
34081;BME280;20358;50.272;19.026;2023-04-23T15:49:03;97505.88;;;21.07;28.92
34081;BME280;20358;50.272;19.026;2023-04-23T15:52:09;97505.19;;;21.39;28.08
34081;BME280;20358;50.272;19.026;2023-04-23T15:55:16;97499.66;;;21.61;27.62
34081;BME280;20358;50.272;19.026;2023-04-23T15:58:23;97498.25;;;21.91;27.07
34081;BME280;20358;50.272;19.026;2023-04-23T16:01:29;97494.94;;;22.41;27.39
34081;BME280;20358;50.272;19.026;2023-04-23T16:04:38;97498.13;;;22.76;26.27
34081;BME280;20358;50.272;19.026;2023-04-23T16:07:45;97487.38;;;22.83;25.85
34081;BME280;20358;50.272;19.026;2023-04-23T16:10:50;97486.72;;;22.81;26.06
34081;BME280;20358;50.272;19.026;2023-04-23T16:13:58;97479.63;;;22.35;26.06
34081;BME280;20358;50.272;19.026;2023-04-23T16:17:04;97471.78;;;22.01;26.45
34081;BME280;20358;50.272;19.026;2023-04-23T16:20:13;97477.31;;;21.67;26.69
34081;BME280;20358;50.272;19.026;2023-04-23T16:23:19;97473.41;;;21.63;27.32
34081;BME280;20358;50.272;19.026;2023-04-23T16:26:26;97461.03;;;21.75;27.24